sensor_id;sensor_type;location;lat;lon;timestamp;P1;durP1;ratioP1;P2;durP2;ratioP2
67665;SDS011;54448;51.472;-2.574;2023-07-13T00:00:26;13.27;;;2.42;;
67665;SDS011;54448;51.472;-2.574;2023-07-13T00:02:52;10.20;;;2.72;;
67665;SDS011;54448;51.472;-2.574;2023-07-13T00:05:21;11.82;;;2.58;;
67665;SDS011;54448;51.472;-2.574;2023-07-13T00:07:47;12.65;;;2.50;;
67665;SDS011;54448;51.472;-2.574;2023-07-13T00:10:13;15.93;;;2.70;;
67665;SDS011;54448;51.472;-2.574;2023-07-13T00:12:39;11.30;;;1.80;;
67665;SDS011;54448;51.472;-2.574;2023-07-13T00:15:06;9.73;;;2.38;;
67665;SDS011;54448;51.472;-2.574;2023-07-13T00:17:48;13.70;;;2.73;;
67665;SDS011;54448;51.472;-2.574;2023-07-13T00:20:14;12.95;;;2.45;;
67665;SDS011;54448;51.472;-2.574;2023-07-13T00:22:39;10.63;;;2.38;;
67665;SDS011;54448;51.472;-2.574;2023-07-13T00:25:05;7.88;;;2.00;;
67665;SDS011;54448;51.472;-2.574;2023-07-13T00:27:30;11.07;;;2.22;;
67665;SDS011;54448;51.472;-2.574;2023-07-13T00:29:57;14.00;;;2.92;;
67665;SDS011;54448;51.472;-2.574;2023-07-13T00:32:23;11.48;;;2.55;;
67665;SDS011;54448;51.472;-2.574;2023-07-13T00:34:50;9.45;;;2.50;;
67665;SDS011;54448;51.472;-2.574;2023-07-13T00:37:16;11.45;;;2.55;;
67665;SDS011;54448;51.472;-2.574;2023-07-13T00:39:41;9.20;;;2.70;;
67665;SDS011;54448;51.472;-2.574;2023-07-13T00:42:06;8.30;;;2.40;;
67665;SDS011;54448;51.472;-2.574;2023-07-13T00:44:32;8.93;;;2.17;;
67665;SDS011;54448;51.472;-2.574;2023-07-13T00:46:57;10.18;;;2.58;;
67665;SDS011;54448;51.472;-2.574;2023-07-13T00:49:24;7.85;;;2.08;;
67665;SDS011;54448;51.472;-2.574;2023-07-13T00:51:58;7.72;;;2.33;;
67665;SDS011;54448;51.472;-2.574;2023-07-13T00:54:32;10.98;;;2.45;;
67665;SDS011;54448;51.472;-2.574;2023-07-13T00:57:06;7.72;;;2.65;;
67665;SDS011;54448;51.472;-2.574;2023-07-13T00:59:34;11.82;;;3.35;;
67665;SDS011;54448;51.472;-2.574;2023-07-13T01:02:01;14.02;;;3.30;;
67665;SDS011;54448;51.472;-2.574;2023-07-13T01:04:27;8.95;;;2.67;;
67665;SDS011;54448;51.472;-2.574;2023-07-13T01:06:52;7.68;;;2.60;;
67665;SDS011;54448;51.472;-2.574;2023-07-13T01:09:19;8.65;;;2.78;;
67665;SDS011;54448;51.472;-2.574;2023-07-13T01:11:45;15.43;;;2.80;;
67665;SDS011;54448;51.472;-2.574;2023-07-13T01:14:10;10.95;;;2.70;;
67665;SDS011;54448;51.472;-2.574;2023-07-13T01:16:36;6.20;;;2.47;;
67665;SDS011;54448;51.472;-2.574;2023-07-13T01:22:01;11.23;;;2.63;;
67665;SDS011;54448;51.472;-2.574;2023-07-13T01:24:28;14.15;;;2.53;;
67665;SDS011;54448;51.472;-2.574;2023-07-13T01:26:54;8.10;;;2.45;;
67665;SDS011;54448;51.472;-2.574;2023-07-13T01:29:19;9.40;;;3.65;;
67665;SDS011;54448;51.472;-2.574;2023-07-13T01:31:45;11.38;;;2.78;;
67665;SDS011;54448;51.472;-2.574;2023-07-13T01:34:10;13.18;;;2.75;;
67665;SDS011;54448;51.472;-2.574;2023-07-13T01:36:35;9.25;;;2.45;;
67665;SDS011;54448;51.472;-2.574;2023-07-13T01:39:01;8.82;;;2.22;;
67665;SDS011;54448;51.472;-2.574;2023-07-13T01:41:27;5.85;;;2.28;;
67665;SDS011;54448;51.472;-2.574;2023-07-13T01:43:53;11.40;;;2.97;;
67665;SDS011;54448;51.472;-2.574;2023-07-13T01:46:18;10.38;;;2.70;;
67665;SDS011;54448;51.472;-2.574;2023-07-13T01:48:43;11.43;;;4.05;;
67665;SDS011;54448;51.472;-2.574;2023-07-13T01:51:09;5.68;;;2.50;;
67665;SDS011;54448;51.472;-2.574;2023-07-13T01:53:34;11.73;;;2.40;;
67665;SDS011;54448;51.472;-2.574;2023-07-13T01:55:59;7.68;;;2.67;;
67665;SDS011;54448;51.472;-2.574;2023-07-13T01:58:25;5.65;;;2.58;;
67665;SDS011;54448;51.472;-2.574;2023-07-13T02:00:51;11.18;;;2.80;;
67665;SDS011;54448;51.472;-2.574;2023-07-13T02:03:16;9.38;;;2.90;;
67665;SDS011;54448;51.472;-2.574;2023-07-13T02:05:43;10.00;;;2.47;;
67665;SDS011;54448;51.472;-2.574;2023-07-13T02:08:09;13.52;;;2.78;;
67665;SDS011;54448;51.472;-2.574;2023-07-13T02:10:34;11.95;;;3.13;;
67665;SDS011;54448;51.472;-2.574;2023-07-13T02:13:00;9.18;;;2.97;;
67665;SDS011;54448;51.472;-2.574;2023-07-13T02:15:25;13.80;;;3.13;;
67665;SDS011;54448;51.472;-2.574;2023-07-13T02:17:51;9.18;;;2.75;;
67665;SDS011;54448;51.472;-2.574;2023-07-13T02:20:17;11.63;;;2.70;;
67665;SDS011;54448;51.472;-2.574;2023-07-13T02:22:42;8.77;;;3.00;;
67665;SDS011;54448;51.472;-2.574;2023-07-13T02:25:08;11.50;;;3.47;;
67665;SDS011;54448;51.472;-2.574;2023-07-13T02:27:33;8.32;;;2.92;;
67665;SDS011;54448;51.472;-2.574;2023-07-13T02:29:59;9.70;;;2.90;;
67665;SDS011;54448;51.472;-2.574;2023-07-13T02:32:24;10.85;;;3.28;;
67665;SDS011;54448;51.472;-2.574;2023-07-13T02:34:50;8.00;;;3.30;;
67665;SDS011;54448;51.472;-2.574;2023-07-13T02:37:17;11.05;;;3.17;;
67665;SDS011;54448;51.472;-2.574;2023-07-13T02:39:42;8.90;;;2.90;;
67665;SDS011;54448;51.472;-2.574;2023-07-13T02:42:08;6.78;;;3.08;;
67665;SDS011;54448;51.472;-2.574;2023-07-13T02:44:33;12.68;;;3.17;;
67665;SDS011;54448;51.472;-2.574;2023-07-13T02:46:59;14.23;;;2.95;;
67665;SDS011;54448;51.472;-2.574;2023-07-13T02:49:24;13.07;;;3.42;;
67665;SDS011;54448;51.472;-2.574;2023-07-13T02:51:50;9.20;;;3.03;;
67665;SDS011;54448;51.472;-2.574;2023-07-13T02:54:16;7.60;;;2.70;;
67665;SDS011;54448;51.472;-2.574;2023-07-13T02:56:41;14.68;;;2.90;;
67665;SDS011;54448;51.472;-2.574;2023-07-13T02:59:08;10.32;;;2.67;;
67665;SDS011;54448;51.472;-2.574;2023-07-13T03:01:34;10.45;;;2.60;;
67665;SDS011;54448;51.472;-2.574;2023-07-13T03:04:00;11.60;;;3.00;;
67665;SDS011;54448;51.472;-2.574;2023-07-13T03:06:26;16.27;;;2.47;;
67665;SDS011;54448;51.472;-2.574;2023-07-13T03:08:54;7.88;;;3.30;;
67665;SDS011;54448;51.472;-2.574;2023-07-13T03:11:20;17.98;;;2.67;;
67665;SDS011;54448;51.472;-2.574;2023-07-13T03:13:45;7.95;;;2.00;;
67665;SDS011;54448;51.472;-2.574;2023-07-13T03:16:11;10.02;;;2.58;;
67665;SDS011;54448;51.472;-2.574;2023-07-13T03:18:37;10.55;;;2.20;;
67665;SDS011;54448;51.472;-2.574;2023-07-13T03:21:03;12.27;;;2.10;;
67665;SDS011;54448;51.472;-2.574;2023-07-13T03:23:29;10.75;;;2.35;;
67665;SDS011;54448;51.472;-2.574;2023-07-13T03:26:28;7.55;;;1.95;;
67665;SDS011;54448;51.472;-2.574;2023-07-13T03:28:47;11.65;;;2.00;;
67665;SDS011;54448;51.472;-2.574;2023-07-13T03:31:13;12.05;;;2.33;;
67665;SDS011;54448;51.472;-2.574;2023-07-13T03:33:40;8.80;;;2.78;;
67665;SDS011;54448;51.472;-2.574;2023-07-13T03:36:06;12.35;;;2.50;;
67665;SDS011;54448;51.472;-2.574;2023-07-13T03:38:35;17.58;;;2.83;;
67665;SDS011;54448;51.472;-2.574;2023-07-13T03:41:00;10.57;;;3.33;;
67665;SDS011;54448;51.472;-2.574;2023-07-13T03:43:26;12.40;;;3.78;;
67665;SDS011;54448;51.472;-2.574;2023-07-13T03:45:51;13.40;;;3.10;;
67665;SDS011;54448;51.472;-2.574;2023-07-13T03:48:17;9.95;;;2.83;;
67665;SDS011;54448;51.472;-2.574;2023-07-13T03:50:42;10.68;;;2.67;;
67665;SDS011;54448;51.472;-2.574;2023-07-13T03:53:08;12.07;;;3.10;;
67665;SDS011;54448;51.472;-2.574;2023-07-13T03:55:33;8.90;;;2.75;;
67665;SDS011;54448;51.472;-2.574;2023-07-13T03:58:00;10.13;;;3.25;;
67665;SDS011;54448;51.472;-2.574;2023-07-13T04:00:27;9.05;;;3.10;;
67665;SDS011;54448;51.472;-2.574;2023-07-13T04:02:52;19.58;;;3.05;;
67665;SDS011;54448;51.472;-2.574;2023-07-13T04:05:18;6.88;;;2.92;;
67665;SDS011;54448;51.472;-2.574;2023-07-13T04:07:43;10.90;;;3.40;;
67665;SDS011;54448;51.472;-2.574;2023-07-13T04:10:09;7.10;;;3.10;;
67665;SDS011;54448;51.472;-2.574;2023-07-13T04:12:34;7.78;;;3.05;;
67665;SDS011;54448;51.472;-2.574;2023-07-13T04:15:00;12.35;;;2.95;;
67665;SDS011;54448;51.472;-2.574;2023-07-13T04:17:25;10.25;;;3.35;;
67665;SDS011;54448;51.472;-2.574;2023-07-13T04:19:50;7.82;;;3.35;;
67665;SDS011;54448;51.472;-2.574;2023-07-13T04:22:17;12.63;;;3.08;;
67665;SDS011;54448;51.472;-2.574;2023-07-13T04:24:42;9.07;;;3.03;;
67665;SDS011;54448;51.472;-2.574;2023-07-13T04:27:08;8.48;;;2.92;;
67665;SDS011;54448;51.472;-2.574;2023-07-13T04:29:33;15.23;;;3.40;;
67665;SDS011;54448;51.472;-2.574;2023-07-13T04:31:58;6.85;;;2.72;;
67665;SDS011;54448;51.472;-2.574;2023-07-13T04:34:24;7.63;;;3.10;;
67665;SDS011;54448;51.472;-2.574;2023-07-13T04:36:49;9.05;;;2.88;;
67665;SDS011;54448;51.472;-2.574;2023-07-13T04:39:15;10.05;;;3.17;;
67665;SDS011;54448;51.472;-2.574;2023-07-13T04:41:40;8.95;;;2.95;;
67665;SDS011;54448;51.472;-2.574;2023-07-13T04:44:06;12.70;;;3.10;;
67665;SDS011;54448;51.472;-2.574;2023-07-13T04:46:31;11.73;;;3.42;;
67665;SDS011;54448;51.472;-2.574;2023-07-13T04:48:56;10.45;;;3.05;;
67665;SDS011;54448;51.472;-2.574;2023-07-13T04:51:23;7.32;;;2.88;;
67665;SDS011;54448;51.472;-2.574;2023-07-13T04:53:48;12.35;;;2.97;;
67665;SDS011;54448;51.472;-2.574;2023-07-13T04:56:13;12.68;;;2.80;;
67665;SDS011;54448;51.472;-2.574;2023-07-13T04:58:39;10.23;;;2.83;;
67665;SDS011;54448;51.472;-2.574;2023-07-13T05:01:05;12.32;;;3.00;;
67665;SDS011;54448;51.472;-2.574;2023-07-13T05:03:31;7.00;;;3.03;;
67665;SDS011;54448;51.472;-2.574;2023-07-13T05:06:04;9.95;;;2.88;;
67665;SDS011;54448;51.472;-2.574;2023-07-13T05:08:31;9.32;;;3.40;;
67665;SDS011;54448;51.472;-2.574;2023-07-13T05:10:58;8.75;;;2.95;;
67665;SDS011;54448;51.472;-2.574;2023-07-13T05:13:24;9.27;;;2.70;;
67665;SDS011;54448;51.472;-2.574;2023-07-13T05:15:58;9.00;;;2.53;;
67665;SDS011;54448;51.472;-2.574;2023-07-13T05:18:25;9.02;;;2.40;;
67665;SDS011;54448;51.472;-2.574;2023-07-13T05:20:57;7.72;;;2.38;;
67665;SDS011;54448;51.472;-2.574;2023-07-13T05:23:23;7.88;;;2.42;;
67665;SDS011;54448;51.472;-2.574;2023-07-13T05:25:48;7.15;;;2.35;;
67665;SDS011;54448;51.472;-2.574;2023-07-13T05:28:14;5.68;;;2.15;;
67665;SDS011;54448;51.472;-2.574;2023-07-13T05:30:39;8.05;;;2.47;;
67665;SDS011;54448;51.472;-2.574;2023-07-13T05:33:04;10.80;;;2.67;;
67665;SDS011;54448;51.472;-2.574;2023-07-13T05:35:30;8.40;;;2.72;;
67665;SDS011;54448;51.472;-2.574;2023-07-13T05:37:55;8.15;;;2.65;;
67665;SDS011;54448;51.472;-2.574;2023-07-13T05:40:21;7.25;;;2.63;;
67665;SDS011;54448;51.472;-2.574;2023-07-13T05:42:46;10.55;;;2.30;;
67665;SDS011;54448;51.472;-2.574;2023-07-13T05:45:11;12.90;;;2.35;;
67665;SDS011;54448;51.472;-2.574;2023-07-13T05:47:36;9.52;;;1.98;;
67665;SDS011;54448;51.472;-2.574;2023-07-13T05:50:02;6.63;;;1.92;;
67665;SDS011;54448;51.472;-2.574;2023-07-13T05:52:27;7.57;;;2.10;;
67665;SDS011;54448;51.472;-2.574;2023-07-13T05:54:53;6.57;;;1.98;;
67665;SDS011;54448;51.472;-2.574;2023-07-13T05:57:18;7.95;;;1.95;;
67665;SDS011;54448;51.472;-2.574;2023-07-13T05:59:43;7.70;;;2.08;;
67665;SDS011;54448;51.472;-2.574;2023-07-13T06:02:09;9.40;;;1.90;;
67665;SDS011;54448;51.472;-2.574;2023-07-13T06:04:35;5.45;;;2.28;;
67665;SDS011;54448;51.472;-2.574;2023-07-13T06:07:01;4.68;;;2.05;;
67665;SDS011;54448;51.472;-2.574;2023-07-13T06:09:26;10.75;;;2.55;;
67665;SDS011;54448;51.472;-2.574;2023-07-13T06:11:51;6.22;;;2.22;;
67665;SDS011;54448;51.472;-2.574;2023-07-13T06:14:17;8.93;;;2.33;;
67665;SDS011;54448;51.472;-2.574;2023-07-13T06:16:42;6.93;;;2.22;;
67665;SDS011;54448;51.472;-2.574;2023-07-13T06:19:08;5.78;;;2.08;;
67665;SDS011;54448;51.472;-2.574;2023-07-13T06:21:33;10.20;;;2.72;;
67665;SDS011;54448;51.472;-2.574;2023-07-13T06:23:58;5.68;;;2.00;;
67665;SDS011;54448;51.472;-2.574;2023-07-13T06:26:24;8.38;;;2.30;;
67665;SDS011;54448;51.472;-2.574;2023-07-13T06:28:49;6.65;;;2.00;;
67665;SDS011;54448;51.472;-2.574;2023-07-13T06:31:14;7.40;;;2.28;;
67665;SDS011;54448;51.472;-2.574;2023-07-13T06:33:40;5.72;;;1.92;;
67665;SDS011;54448;51.472;-2.574;2023-07-13T06:36:06;3.67;;;1.63;;
67665;SDS011;54448;51.472;-2.574;2023-07-13T06:38:33;4.72;;;2.00;;
67665;SDS011;54448;51.472;-2.574;2023-07-13T06:40:58;9.00;;;2.22;;
67665;SDS011;54448;51.472;-2.574;2023-07-13T06:43:24;9.18;;;1.95;;
67665;SDS011;54448;51.472;-2.574;2023-07-13T06:45:54;4.97;;;1.77;;
67665;SDS011;54448;51.472;-2.574;2023-07-13T06:48:20;7.57;;;2.20;;
67665;SDS011;54448;51.472;-2.574;2023-07-13T06:50:46;7.50;;;2.00;;
67665;SDS011;54448;51.472;-2.574;2023-07-13T06:53:12;11.32;;;3.15;;
67665;SDS011;54448;51.472;-2.574;2023-07-13T06:55:38;8.50;;;2.30;;
67665;SDS011;54448;51.472;-2.574;2023-07-13T06:58:04;4.68;;;2.13;;
67665;SDS011;54448;51.472;-2.574;2023-07-13T07:00:29;9.20;;;2.35;;
67665;SDS011;54448;51.472;-2.574;2023-07-13T07:02:54;10.68;;;2.60;;
67665;SDS011;54448;51.472;-2.574;2023-07-13T07:05:20;7.72;;;2.35;;
67665;SDS011;54448;51.472;-2.574;2023-07-13T07:07:47;8.60;;;2.15;;
67665;SDS011;54448;51.472;-2.574;2023-07-13T07:10:13;7.47;;;2.22;;
67665;SDS011;54448;51.472;-2.574;2023-07-13T07:12:38;5.40;;;1.67;;
67665;SDS011;54448;51.472;-2.574;2023-07-13T07:15:03;7.10;;;1.58;;
67665;SDS011;54448;51.472;-2.574;2023-07-13T07:17:29;4.80;;;1.50;;
67665;SDS011;54448;51.472;-2.574;2023-07-13T07:19:54;6.97;;;1.58;;
67665;SDS011;54448;51.472;-2.574;2023-07-13T07:22:20;3.63;;;1.63;;
67665;SDS011;54448;51.472;-2.574;2023-07-13T07:24:46;6.38;;;1.65;;
67665;SDS011;54448;51.472;-2.574;2023-07-13T07:27:11;5.85;;;1.48;;
67665;SDS011;54448;51.472;-2.574;2023-07-13T07:29:36;6.55;;;1.73;;
67665;SDS011;54448;51.472;-2.574;2023-07-13T07:32:02;5.63;;;1.90;;
67665;SDS011;54448;51.472;-2.574;2023-07-13T07:34:27;5.60;;;1.40;;
67665;SDS011;54448;51.472;-2.574;2023-07-13T07:36:53;3.28;;;1.20;;
67665;SDS011;54448;51.472;-2.574;2023-07-13T07:39:19;7.90;;;1.55;;
67665;SDS011;54448;51.472;-2.574;2023-07-13T07:41:44;5.88;;;1.63;;
67665;SDS011;54448;51.472;-2.574;2023-07-13T07:44:09;3.63;;;1.80;;
67665;SDS011;54448;51.472;-2.574;2023-07-13T07:46:35;3.90;;;1.38;;
67665;SDS011;54448;51.472;-2.574;2023-07-13T07:49:00;3.67;;;1.52;;
67665;SDS011;54448;51.472;-2.574;2023-07-13T07:51:26;2.13;;;1.15;;
67665;SDS011;54448;51.472;-2.574;2023-07-13T07:53:51;5.88;;;1.70;;
67665;SDS011;54448;51.472;-2.574;2023-07-13T07:56:16;4.20;;;1.70;;
67665;SDS011;54448;51.472;-2.574;2023-07-13T07:58:42;5.47;;;1.77;;
67665;SDS011;54448;51.472;-2.574;2023-07-13T08:01:07;5.72;;;1.85;;
67665;SDS011;54448;51.472;-2.574;2023-07-13T08:03:33;4.15;;;1.85;;
67665;SDS011;54448;51.472;-2.574;2023-07-13T08:05:59;8.35;;;2.13;;
67665;SDS011;54448;51.472;-2.574;2023-07-13T08:08:24;7.00;;;2.30;;
67665;SDS011;54448;51.472;-2.574;2023-07-13T08:10:50;9.88;;;2.50;;
67665;SDS011;54448;51.472;-2.574;2023-07-13T08:13:15;6.38;;;2.10;;
67665;SDS011;54448;51.472;-2.574;2023-07-13T08:15:40;5.43;;;1.90;;
67665;SDS011;54448;51.472;-2.574;2023-07-13T08:18:06;7.22;;;2.53;;
67665;SDS011;54448;51.472;-2.574;2023-07-13T08:20:33;4.97;;;2.58;;
67665;SDS011;54448;51.472;-2.574;2023-07-13T08:22:58;5.13;;;2.10;;
67665;SDS011;54448;51.472;-2.574;2023-07-13T08:25:24;4.55;;;2.38;;
67665;SDS011;54448;51.472;-2.574;2023-07-13T08:27:49;6.38;;;2.33;;
67665;SDS011;54448;51.472;-2.574;2023-07-13T08:30:14;5.53;;;2.40;;
67665;SDS011;54448;51.472;-2.574;2023-07-13T08:32:40;8.13;;;2.28;;
67665;SDS011;54448;51.472;-2.574;2023-07-13T08:35:05;7.10;;;2.33;;
67665;SDS011;54448;51.472;-2.574;2023-07-13T08:37:31;6.72;;;2.60;;
67665;SDS011;54448;51.472;-2.574;2023-07-13T08:39:56;6.32;;;2.55;;
67665;SDS011;54448;51.472;-2.574;2023-07-13T08:47:51;8.82;;;3.00;;
67665;SDS011;54448;51.472;-2.574;2023-07-13T08:50:19;10.00;;;2.40;;
67665;SDS011;54448;51.472;-2.574;2023-07-13T08:52:47;6.55;;;2.35;;
67665;SDS011;54448;51.472;-2.574;2023-07-13T08:55:17;6.75;;;2.50;;
67665;SDS011;54448;51.472;-2.574;2023-07-13T08:57:49;5.88;;;2.28;;
67665;SDS011;54448;51.472;-2.574;2023-07-13T09:00:21;6.03;;;2.10;;
67665;SDS011;54448;51.472;-2.574;2023-07-13T09:02:57;5.55;;;2.13;;
67665;SDS011;54448;51.472;-2.574;2023-07-13T09:05:30;3.65;;;2.00;;
67665;SDS011;54448;51.472;-2.574;2023-07-13T09:10:49;4.22;;;1.70;;
67665;SDS011;54448;51.472;-2.574;2023-07-13T09:13:23;8.80;;;1.90;;
67665;SDS011;54448;51.472;-2.574;2023-07-13T09:15:56;6.43;;;2.20;;
67665;SDS011;54448;51.472;-2.574;2023-07-13T09:18:28;3.95;;;1.90;;
67665;SDS011;54448;51.472;-2.574;2023-07-13T09:21:08;4.40;;;1.88;;
67665;SDS011;54448;51.472;-2.574;2023-07-13T09:23:35;6.28;;;2.20;;
67665;SDS011;54448;51.472;-2.574;2023-07-13T09:26:06;5.97;;;1.95;;
67665;SDS011;54448;51.472;-2.574;2023-07-13T09:28:43;5.82;;;1.50;;
67665;SDS011;54448;51.472;-2.574;2023-07-13T09:31:17;3.55;;;1.58;;
67665;SDS011;54448;51.472;-2.574;2023-07-13T09:33:47;3.90;;;1.30;;
67665;SDS011;54448;51.472;-2.574;2023-07-13T09:36:32;4.75;;;1.70;;
67665;SDS011;54448;51.472;-2.574;2023-07-13T09:44:15;3.83;;;1.40;;
67665;SDS011;54448;51.472;-2.574;2023-07-13T09:46:46;5.13;;;1.38;;
67665;SDS011;54448;51.472;-2.574;2023-07-13T09:49:12;5.82;;;1.45;;
67665;SDS011;54448;51.472;-2.574;2023-07-13T09:51:41;3.58;;;1.35;;
67665;SDS011;54448;51.472;-2.574;2023-07-13T09:54:18;5.82;;;1.60;;
67665;SDS011;54448;51.472;-2.574;2023-07-13T09:56:50;4.97;;;1.77;;
67665;SDS011;54448;51.472;-2.574;2023-07-13T09:59:23;4.20;;;1.70;;
67665;SDS011;54448;51.472;-2.574;2023-07-13T10:01:51;3.20;;;1.30;;
67665;SDS011;54448;51.472;-2.574;2023-07-13T10:04:17;6.82;;;1.38;;
67665;SDS011;54448;51.472;-2.574;2023-07-13T10:06:44;3.35;;;1.50;;
67665;SDS011;54448;51.472;-2.574;2023-07-13T10:09:10;2.83;;;1.13;;
67665;SDS011;54448;51.472;-2.574;2023-07-13T10:11:40;6.43;;;1.50;;
67665;SDS011;54448;51.472;-2.574;2023-07-13T10:16:39;5.00;;;1.80;;
67665;SDS011;54448;51.472;-2.574;2023-07-13T10:19:24;6.47;;;1.83;;
67665;SDS011;54448;51.472;-2.574;2023-07-13T10:21:55;2.92;;;1.40;;
67665;SDS011;54448;51.472;-2.574;2023-07-13T10:24:25;5.88;;;1.42;;
67665;SDS011;54448;51.472;-2.574;2023-07-13T10:26:56;3.97;;;1.35;;
67665;SDS011;54448;51.472;-2.574;2023-07-13T10:29:25;4.40;;;1.45;;
67665;SDS011;54448;51.472;-2.574;2023-07-13T10:31:52;5.72;;;2.80;;
67665;SDS011;54448;51.472;-2.574;2023-07-13T10:34:18;5.72;;;1.30;;
67665;SDS011;54448;51.472;-2.574;2023-07-13T10:36:44;5.18;;;1.40;;
67665;SDS011;54448;51.472;-2.574;2023-07-13T10:39:19;3.22;;;1.10;;
67665;SDS011;54448;51.472;-2.574;2023-07-13T10:41:48;6.68;;;1.60;;
67665;SDS011;54448;51.472;-2.574;2023-07-13T10:44:18;1.70;;;0.90;;
67665;SDS011;54448;51.472;-2.574;2023-07-13T10:46:46;6.93;;;1.42;;
67665;SDS011;54448;51.472;-2.574;2023-07-13T10:49:12;3.67;;;1.10;;
67665;SDS011;54448;51.472;-2.574;2023-07-13T10:51:38;3.78;;;1.30;;
67665;SDS011;54448;51.472;-2.574;2023-07-13T10:56:34;4.90;;;1.40;;
67665;SDS011;54448;51.472;-2.574;2023-07-13T11:01:51;4.80;;;2.10;;
67665;SDS011;54448;51.472;-2.574;2023-07-13T11:04:18;3.80;;;1.15;;
67665;SDS011;54448;51.472;-2.574;2023-07-13T11:06:45;5.97;;;1.27;;
67665;SDS011;54448;51.472;-2.574;2023-07-13T11:14:35;9.73;;;1.30;;
67665;SDS011;54448;51.472;-2.574;2023-07-13T11:22:47;5.35;;;1.48;;
67665;SDS011;54448;51.472;-2.574;2023-07-13T11:27:51;2.75;;;0.95;;
67665;SDS011;54448;51.472;-2.574;2023-07-13T11:30:32;8.40;;;1.30;;
67665;SDS011;54448;51.472;-2.574;2023-07-13T11:33:23;3.88;;;1.13;;
67665;SDS011;54448;51.472;-2.574;2023-07-13T11:38:33;4.47;;;1.77;;
67665;SDS011;54448;51.472;-2.574;2023-07-13T11:41:27;6.38;;;1.30;;
67665;SDS011;54448;51.472;-2.574;2023-07-13T11:43:55;5.38;;;1.40;;
67665;SDS011;54448;51.472;-2.574;2023-07-13T11:46:27;3.40;;;1.05;;
67665;SDS011;54448;51.472;-2.574;2023-07-13T11:48:54;4.05;;;1.20;;
67665;SDS011;54448;51.472;-2.574;2023-07-13T11:53:54;2.70;;;1.15;;
67665;SDS011;54448;51.472;-2.574;2023-07-13T11:56:20;4.25;;;1.15;;
67665;SDS011;54448;51.472;-2.574;2023-07-13T11:58:49;9.43;;;1.45;;
67665;SDS011;54448;51.472;-2.574;2023-07-13T12:01:18;4.93;;;1.20;;
67665;SDS011;54448;51.472;-2.574;2023-07-13T12:03:46;5.15;;;1.25;;
67665;SDS011;54448;51.472;-2.574;2023-07-13T12:08:46;6.07;;;1.35;;
67665;SDS011;54448;51.472;-2.574;2023-07-13T12:11:17;8.15;;;1.00;;
67665;SDS011;54448;51.472;-2.574;2023-07-13T12:13:43;4.82;;;1.20;;
67665;SDS011;54448;51.472;-2.574;2023-07-13T12:16:51;3.55;;;1.30;;
67665;SDS011;54448;51.472;-2.574;2023-07-13T12:18:58;3.80;;;1.58;;
67665;SDS011;54448;51.472;-2.574;2023-07-13T12:21:32;2.88;;;1.35;;
67665;SDS011;54448;51.472;-2.574;2023-07-13T12:23:58;2.97;;;1.30;;
67665;SDS011;54448;51.472;-2.574;2023-07-13T12:26:24;2.67;;;1.15;;
67665;SDS011;54448;51.472;-2.574;2023-07-13T12:28:53;4.43;;;1.10;;
67665;SDS011;54448;51.472;-2.574;2023-07-13T12:31:25;4.88;;;1.10;;
67665;SDS011;54448;51.472;-2.574;2023-07-13T12:34:18;5.60;;;1.20;;
67665;SDS011;54448;51.472;-2.574;2023-07-13T12:36:46;4.47;;;1.10;;
67665;SDS011;54448;51.472;-2.574;2023-07-13T12:39:16;2.92;;;1.08;;
67665;SDS011;54448;51.472;-2.574;2023-07-13T12:41:42;4.72;;;1.30;;
67665;SDS011;54448;51.472;-2.574;2023-07-13T12:44:10;2.42;;;1.13;;
67665;SDS011;54448;51.472;-2.574;2023-07-13T12:46:37;5.25;;;1.33;;
67665;SDS011;54448;51.472;-2.574;2023-07-13T12:49:04;5.75;;;1.45;;
67665;SDS011;54448;51.472;-2.574;2023-07-13T12:51:32;11.00;;;1.42;;
67665;SDS011;54448;51.472;-2.574;2023-07-13T12:53:59;4.47;;;1.25;;
67665;SDS011;54448;51.472;-2.574;2023-07-13T12:56:33;3.40;;;1.13;;
67665;SDS011;54448;51.472;-2.574;2023-07-13T12:59:00;6.43;;;1.40;;
67665;SDS011;54448;51.472;-2.574;2023-07-13T13:01:28;6.55;;;1.60;;
67665;SDS011;54448;51.472;-2.574;2023-07-13T13:03:54;7.38;;;1.38;;
67665;SDS011;54448;51.472;-2.574;2023-07-13T13:08:54;10.68;;;1.55;;
67665;SDS011;54448;51.472;-2.574;2023-07-13T13:11:23;7.78;;;1.60;;
67665;SDS011;54448;51.472;-2.574;2023-07-13T13:13:49;8.48;;;1.65;;
67665;SDS011;54448;51.472;-2.574;2023-07-13T13:16:20;6.05;;;1.55;;
67665;SDS011;54448;51.472;-2.574;2023-07-13T13:18:47;6.95;;;1.45;;
67665;SDS011;54448;51.472;-2.574;2023-07-13T13:21:14;5.85;;;1.20;;
67665;SDS011;54448;51.472;-2.574;2023-07-13T13:23:41;6.07;;;1.70;;
67665;SDS011;54448;51.472;-2.574;2023-07-13T13:26:11;2.40;;;1.00;;
67665;SDS011;54448;51.472;-2.574;2023-07-13T13:28:40;3.08;;;1.10;;
67665;SDS011;54448;51.472;-2.574;2023-07-13T13:31:07;5.95;;;1.50;;
67665;SDS011;54448;51.472;-2.574;2023-07-13T13:33:37;3.72;;;1.80;;
67665;SDS011;54448;51.472;-2.574;2023-07-13T13:36:04;4.20;;;1.10;;
67665;SDS011;54448;51.472;-2.574;2023-07-13T13:38:29;3.83;;;1.23;;
67665;SDS011;54448;51.472;-2.574;2023-07-13T13:40:55;8.75;;;1.40;;
67665;SDS011;54448;51.472;-2.574;2023-07-13T13:43:25;5.20;;;1.35;;
67665;SDS011;54448;51.472;-2.574;2023-07-13T13:45:52;7.03;;;1.40;;
67665;SDS011;54448;51.472;-2.574;2023-07-13T13:48:31;7.60;;;1.60;;
67665;SDS011;54448;51.472;-2.574;2023-07-13T13:50:58;11.38;;;1.67;;
67665;SDS011;54448;51.472;-2.574;2023-07-13T13:53:24;10.18;;;1.95;;
67665;SDS011;54448;51.472;-2.574;2023-07-13T13:55:50;6.97;;;1.52;;
67665;SDS011;54448;51.472;-2.574;2023-07-13T13:58:17;7.28;;;1.75;;
67665;SDS011;54448;51.472;-2.574;2023-07-13T14:00:42;5.18;;;1.75;;
67665;SDS011;54448;51.472;-2.574;2023-07-13T14:03:28;8.77;;;2.17;;
67665;SDS011;54448;51.472;-2.574;2023-07-13T14:05:54;10.52;;;1.92;;
67665;SDS011;54448;51.472;-2.574;2023-07-13T14:08:20;7.22;;;1.95;;
67665;SDS011;54448;51.472;-2.574;2023-07-13T14:10:47;7.45;;;1.80;;
67665;SDS011;54448;51.472;-2.574;2023-07-13T14:13:15;12.93;;;1.90;;
67665;SDS011;54448;51.472;-2.574;2023-07-13T14:15:43;7.82;;;1.90;;
67665;SDS011;54448;51.472;-2.574;2023-07-13T14:18:09;11.55;;;2.22;;
67665;SDS011;54448;51.472;-2.574;2023-07-13T14:20:34;9.30;;;2.10;;
67665;SDS011;54448;51.472;-2.574;2023-07-13T14:22:59;7.35;;;2.47;;
67665;SDS011;54448;51.472;-2.574;2023-07-13T14:25:25;5.25;;;2.10;;
67665;SDS011;54448;51.472;-2.574;2023-07-13T14:27:53;5.75;;;1.70;;
67665;SDS011;54448;51.472;-2.574;2023-07-13T14:30:21;7.68;;;2.28;;
67665;SDS011;54448;51.472;-2.574;2023-07-13T14:32:47;7.45;;;1.83;;
67665;SDS011;54448;51.472;-2.574;2023-07-13T14:35:14;8.88;;;2.38;;
67665;SDS011;54448;51.472;-2.574;2023-07-13T14:37:40;7.18;;;2.42;;
67665;SDS011;54448;51.472;-2.574;2023-07-13T14:42:39;6.85;;;2.33;;
67665;SDS011;54448;51.472;-2.574;2023-07-13T14:45:04;9.00;;;2.17;;
67665;SDS011;54448;51.472;-2.574;2023-07-13T14:47:30;10.20;;;1.75;;
67665;SDS011;54448;51.472;-2.574;2023-07-13T14:49:56;8.05;;;1.92;;
67665;SDS011;54448;51.472;-2.574;2023-07-13T14:52:22;5.15;;;1.83;;
67665;SDS011;54448;51.472;-2.574;2023-07-13T14:54:48;7.60;;;1.75;;
67665;SDS011;54448;51.472;-2.574;2023-07-13T14:57:15;9.07;;;2.40;;
67665;SDS011;54448;51.472;-2.574;2023-07-13T14:59:41;4.40;;;1.90;;
67665;SDS011;54448;51.472;-2.574;2023-07-13T15:02:27;6.70;;;1.63;;
67665;SDS011;54448;51.472;-2.574;2023-07-13T15:04:54;6.20;;;1.60;;
67665;SDS011;54448;51.472;-2.574;2023-07-13T15:07:20;5.82;;;1.90;;
67665;SDS011;54448;51.472;-2.574;2023-07-13T15:09:46;7.40;;;1.77;;
67665;SDS011;54448;51.472;-2.574;2023-07-13T15:12:16;11.07;;;1.75;;
67665;SDS011;54448;51.472;-2.574;2023-07-13T15:14:41;8.15;;;1.92;;
67665;SDS011;54448;51.472;-2.574;2023-07-13T15:17:22;5.57;;;1.60;;
67665;SDS011;54448;51.472;-2.574;2023-07-13T15:19:51;6.68;;;1.80;;
67665;SDS011;54448;51.472;-2.574;2023-07-13T15:22:17;7.13;;;1.75;;